Date,TemperatureHighF,TemperatureAvgF,TemperatureLowF,DewpointHighF,DewpointAvgF,DewpointLowF,HumidityHigh,HumidityAvg,HumidityLow,PressureMaxIn,PressureMinIn,WindSpeedMaxMPH,WindSpeedAvgMPH,GustSpeedMaxMPH,PrecipitationSumIn
2013-1-1,65.8,55.7,48.5,54.8,50.0,44.1,91,81,68,30.14,29.90,4,1,5,0.00
2013-1-2,63.3,55.3,47.3,58.4,51.7,44.5,97,88,79,30.14,29.84,3,1,8,0.01
2013-1-3,47.1,43.7,36.1,44.4,41.6,34.8,95,92,87,30.23,30.08,1,0,5,0.07
2013-1-4,54.7,40.3,29.7,40.5,32.9,28.8,98,78,40,30.31,30.19,3,1,6,0.01
2013-1-5,53.1,39.3,27.1,38.0,31.3,25.7,96,76,38,30.38,30.25,4,1,6,0.00
2013-1-6,53.9,47.7,40.5,46.8,43.1,37.8,95,85,65,30.26,30.06,2,0,4,0.02
2013-1-7,57.2,47.5,35.9,44.9,38.3,32.8,97,73,43,30.37,30.12,5,1,7,0.00
2013-1-8,65.8,52.6,41.1,54.2,45.3,34.8,94,77,63,30.37,30.29,4,1,7,0.00
2013-1-9,73.6,59.1,45.7,61.0,54.8,44.4,98,87,63,30.36,30.30,4,1,6,0.00
2013-1-10,55.0,54.2,53.6,54.2,53.2,52.5,98,96,95,30.38,30.36,0,0,1,0.00
2013-1-14,65.2,62.6,61.6,60.4,60.0,59.3,93,91,84,30.12,30.12,2,1,3,0.01
2013-1-15,76.0,65.1,57.1,65.0,61.5,55.8,99,89,67,30.14,30.00,4,1,5,0.01
2013-1-16,79.3,68.6,60.9,65.7,62.8,58.0,99,83,56,30.02,29.91,5,2,9,0.01
2013-1-17,76.5,63.2,44.3,66.9,58.0,40.5,97,84,61,29.99,29.69,10,3,15,0.17
2013-1-18,54.9,43.6,35.1,40.4,33.4,26.9,92,71,36,30.48,30.00,4,1,6,0.00
2013-1-19,59.5,44.4,32.3,45.7,36.8,29.1,95,76,50,30.46,30.19,3,0,5,0.00
2013-1-20,68.5,50.5,38.3,47.3,38.4,29.3,99,70,24,30.19,29.98,6,1,7,0.00
2013-1-21,67.1,50.5,34.1,48.5,36.6,31.3,96,64,27,30.05,29.89,5,1,10,0.00
2013-1-22,52.7,43.3,30.4,34.5,26.6,19.2,87,55,29,30.22,29.96,5,1,8,0.00
2013-1-23,46.1,36.0,27.5,35.3,20.5,8.2,93,58,22,30.35,30.11,5,1,7,0.00
2013-1-24,59.0,44.5,28.9,43.7,30.0,10.4,80,58,40,30.48,30.00,6,2,12,0.00
2013-1-25,40.2,33.5,24.9,32.8,20.5,7.8,76,59,44,30.47,30.12,3,1,5,0.00
2013-1-26,56.5,42.0,33.0,37.1,31.4,26.2,82,67,46,30.33,30.09,3,1,6,0.00
2013-1-27,49.8,38.5,29.2,35.4,30.5,24.7,88,74,50,30.51,30.33,5,1,8,0.00
2013-1-28,60.9,45.7,35.4,53.6,40.8,29.8,95,83,63,30.47,30.25,3,0,3,0.00
2013-1-29,74.8,57.3,41.7,63.1,53.3,40.6,100,88,64,30.25,30.09,5,1,7,0.00
2013-1-30,71.3,66.2,61.7,65.8,62.9,60.3,98,89,80,30.08,29.57,9,5,15,0.02
2013-1-31,68.1,50.7,42.7,65.1,35.0,23.7,94,58,29,30.10,29.56,10,5,15,0.32
2013-2-1,44.9,40.9,29.6,29.9,26.8,12.6,65,57,44,30.35,30.06,4,2,8,0.00
2013-2-2,49.5,38.4,26.5,41.2,27.1,12.1,94,64,48,30.37,30.04,5,1,9,0.00
2013-2-3,59.3,46.8,37.7,38.3,34.2,30.5,85,65,36,30.04,29.85,8,2,12,0.00
2013-2-4,48.7,39.9,27.6,35.1,30.3,25.6,94,71,46,30.12,29.99,3,1,5,0.00
2013-2-7,60.3,55.3,53.6,54.8,52.9,50.5,97,92,70,30.10,29.68,6,1,10,0.90
2013-2-8,55.5,52.4,49.4,55.1,51.2,47.2,99,96,92,29.71,29.62,5,3,10,0.12
2013-2-9,61.5,46.6,33.8,40.0,31.6,24.6,93,61,28,30.33,30.03,4,1,6,0.00
2013-2-10,49.4,33.9,30.5,41.7,32.1,29.0,96,93,77,30.41,30.31,1,0,1,0.00
2013-2-11,62.5,60.5,58.5,61.2,59.0,57.2,96,95,93,30.05,29.97,4,2,6,0.62
2013-2-12,62.9,57.0,49.2,58.0,54.1,47.5,97,90,62,30.08,29.88,4,1,8,0.74
2013-2-13,66.9,54.5,47.8,61.2,51.0,46.4,98,89,64,29.91,29.63,7,2,13,0.21
2013-2-14,54.2,47.7,40.0,48.8,40.4,36.6,98,77,54,30.05,29.79,3,1,4,0.00
2013-2-15,58.7,45.1,32.5,43.4,37.9,31.2,98,79,45,30.07,29.93,5,1,7,0.00
2013-2-16,54.3,40.1,32.4,43.3,37.0,31.2,98,89,64,29.94,29.76,7,2,13,0.24
2013-2-17,41.7,33.3,26.5,31.3,24.3,18.3,94,72,41,30.26,29.93,8,3,20,0.05
2013-2-18,50.5,36.9,23.4,33.1,26.5,21.4,95,70,36,30.41,30.25,5,1,7,0.00
2013-2-19,62.6,48.6,32.9,54.8,44.7,30.6,97,87,60,30.25,29.92,5,2,17,0.09
2013-2-20,56.2,46.4,34.0,46.9,35.5,22.8,96,69,28,30.11,29.97,5,1,7,0.00
2013-2-21,59.0,44.6,35.3,41.0,32.9,23.4,95,67,34,30.18,30.06,5,1,9,0.00
2013-2-22,51.1,46.7,41.9,48.9,42.7,29.5,97,86,58,30.23,30.02,5,2,10,0.16
2013-2-23,47.1,44.0,42.6,46.3,43.2,41.8,97,97,97,30.02,29.91,2,0,3,0.20
2013-2-27,52.7,50.8,49.4,43.3,42.7,42.1,76,74,69,29.77,29.76,4,2,8,0.00
2013-2-28,59.1,51.1,44.2,42.1,37.3,32.4,85,61,38,29.82,29.71,8,4,18,0.00
2013-3-3,39.5,37.3,35.1,27.4,27.0,26.6,73,66,60,29.95,29.94,1,0,3,0.00
2013-3-4,54.0,40.7,29.6,30.5,23.7,19.1,82,54,27,30.11,29.94,6,2,9,0.00
2013-3-5,63.4,52.1,35.8,55.2,42.1,30.6,94,71,48,30.09,29.61,6,3,10,0.04
2013-3-6,61.7,49.3,41.5,53.8,31.8,25.1,80,52,36,30.01,29.58,10,6,15,0.00
2013-3-7,55.8,42.3,34.4,34.9,30.6,28.7,84,64,41,30.16,30.01,5,2,8,0.00
2013-3-8,58.7,45.9,34.6,33.2,29.7,27.4,76,56,31,30.24,30.11,6,2,10,0.00
2013-3-9,64.8,47.9,32.3,41.3,34.9,28.5,90,63,35,30.28,30.19,5,1,7,0.00
2013-3-10,61.5,48.2,34.6,44.3,35.6,28.6,97,68,29,30.28,30.20,5,1,8,0.00
2013-3-11,70.3,56.9,41.9,57.5,50.4,39.3,98,80,54,30.21,29.90,6,2,11,0.00
2013-3-12,71.2,63.5,55.1,63.1,59.4,49.3,97,87,73,29.91,29.75,6,2,8,0.48
2013-3-13,64.7,54.6,42.7,49.4,36.7,26.8,83,55,24,30.07,29.88,7,2,12,0.00
2013-3-14,46.5,43.0,39.2,32.8,31.1,28.3,77,63,49,30.15,30.13,0,0,0,0.00
2013-3-15,59.8,47.0,30.8,44.8,34.1,23.4,94,65,31,30.19,29.97,6,2,10,0.00
2013-3-16,80.3,66.3,54.7,51.8,46.3,42.2,69,51,27,29.97,29.75,8,4,18,0.00
2013-3-17,79.1,65.7,55.3,58.2,51.2,45.5,75,60,38,30.00,29.87,5,2,9,0.00
2013-3-18,60.9,55.0,49.8,53.8,50.7,47.3,96,86,67,30.08,29.82,5,2,9,0.01
2013-3-19,72.1,58.1,48.5,55.4,50.4,43.0,98,79,40,29.96,29.73,5,2,10,0.50
2013-3-20,60.9,49.7,39.6,45.0,31.9,17.6,89,55,19,30.07,29.78,5,1,9,0.00
2013-3-21,55.6,45.3,37.2,36.6,25.2,15.6,93,51,23,29.92,29.70,7,3,14,0.00
2013-3-22,51.1,41.9,28.7,37.3,24.7,15.6,75,52,29,30.07,29.91,6,1,10,0.00
2013-3-23,50.5,44.7,38.4,46.4,41.3,35.7,95,88,71,30.04,29.87,2,0,4,0.29
2013-3-24,59.6,50.0,44.2,58.2,48.5,42.6,98,94,90,29.88,29.40,9,2,13,1.35
2013-3-25,54.3,47.5,42.2,43.2,34.3,25.8,95,64,37,29.87,29.52,9,5,18,0.01
2013-3-26,47.9,41.8,38.3,31.3,28.6,25.4,72,60,46,30.10,29.87,4,2,8,0.00
2013-3-27,58.1,44.3,30.5,33.1,29.6,25.1,91,60,31,30.20,30.10,6,2,12,0.00
2013-3-28,59.4,44.4,30.4,32.8,28.8,25.0,91,60,28,30.24,30.13,6,2,11,0.00
2013-3-29,58.4,47.0,31.5,40.5,33.4,27.8,91,63,37,30.31,30.19,6,2,9,0.00
2013-3-30,61.5,54.0,47.0,50.3,45.3,39.1,93,73,52,30.21,30.07,6,2,11,0.00
2013-3-31,74.7,62.6,49.0,58.8,54.6,46.8,94,77,54,30.08,29.84,7,2,10,0.44
2013-4-1,60.3,59.2,58.2,58.4,57.7,57.1,97,95,91,29.89,29.82,5,1,7,0.34
2013-4-4,59.2,53.9,48.6,58.3,52.8,47.4,97,96,95,29.82,29.77,5,2,6,0.97
2013-4-5,60.2,48.8,42.7,49.7,45.2,41.2,97,88,68,29.99,29.80,5,2,8,0.00
2013-4-6,67.0,52.5,39.8,51.0,44.1,38.8,98,76,42,30.23,29.99,7,2,10,0.00
2013-4-7,68.8,57.1,41.7,58.0,51.0,40.4,96,81,54,30.23,30.11,5,2,9,0.00
2013-4-8,75.6,64.0,50.9,60.7,56.9,49.8,99,79,57,30.17,30.08,6,2,9,0.00
2013-4-9,79.1,67.9,56.5,65.9,60.9,55.3,98,80,50,30.19,30.09,5,2,10,0.00
2013-4-10,79.2,69.1,59.1,65.6,62.1,57.7,98,80,56,30.13,30.00,7,2,9,0.00
2013-4-11,79.4,71.5,61.5,70.4,66.8,59.6,94,86,73,30.00,29.83,7,4,10,0.00
2013-4-12,73.5,69.3,66.5,71.6,67.6,64.6,98,94,89,29.84,29.68,5,2,9,1.25
2013-4-13,75.3,63.5,54.1,67.7,53.9,46.7,96,74,37,29.99,29.76,5,1,10,0.00
2013-4-14,72.3,61.4,49.2,61.6,56.1,48.1,99,84,59,30.07,29.96,4,1,7,0.01
2013-4-15,72.2,65.8,61.2,63.2,61.5,58.3,96,86,72,30.13,29.85,7,2,10,0.54
2013-4-16,76.2,66.4,57.2,64.9,61.3,56.2,98,84,65,30.22,30.13,5,1,7,0.00
2013-4-17,77.8,67.5,56.7,66.1,61.7,55.9,98,83,58,30.20,30.10,5,1,8,0.00
2013-4-18,70.0,66.1,62.0,67.9,64.2,60.6,95,94,92,30.13,30.01,4,1,8,0.00
2013-4-19,77.3,71.9,66.7,71.6,68.7,65.8,97,90,81,30.01,29.83,7,4,12,0.69
2013-4-20,67.3,56.9,46.8,66.7,51.1,43.0,98,82,55,30.22,29.86,5,1,9,0.15
2013-4-21,66.1,54.8,41.6,50.3,44.8,40.0,96,72,49,30.35,30.21,8,2,16,0.01
2013-4-22,69.5,55.9,45.3,52.8,45.5,35.1,84,69,53,30.33,30.11,3,2,7,0.00
2013-4-23,68.9,57.3,50.6,55.9,51.4,47.8,94,81,62,30.18,30.10,4,1,7,0.00
2013-4-24,73.3,65.4,50.2,62.1,58.0,48.9,96,78,65,30.16,30.02,6,2,9,0.00
2013-4-25,78.0,66.0,58.9,65.4,61.8,56.8,95,87,63,30.22,30.04,4,1,6,0.30
2013-4-26,71.3,60.5,49.7,56.7,50.7,42.0,97,74,38,30.36,30.20,5,1,10,0.00
2013-4-27,73.6,62.0,52.2,57.6,51.3,42.4,96,72,36,30.32,30.21,4,1,9,0.00
2013-4-28,71.4,66.1,60.7,62.7,60.3,54.9,95,82,70,30.20,30.03,6,3,12,0.00
2013-4-29,70.1,65.4,62.2,65.7,62.9,60.6,98,92,77,30.05,29.93,4,1,8,1.80
2013-4-30,72.3,65.5,61.8,66.7,62.6,60.1,98,91,69,30.07,29.93,4,1,7,0.13
2013-5-1,74.8,64.6,58.1,63.0,59.5,56.2,96,84,62,30.15,30.05,4,1,8,0.04
2013-5-6,73.9,67.0,58.4,62.7,57.3,51.7,88,72,47,29.87,29.79,7,3,10,0.14
2013-5-7,68.8,60.5,52.8,58.6,54.4,50.3,94,81,56,29.94,29.85,4,1,7,0.04
2013-5-8,75.2,65.3,53.9,62.7,57.8,52.5,96,78,58,30.00,29.91,5,1,8,0.03
2013-5-9,82.3,70.1,60.6,65.8,61.6,57.4,90,76,49,30.05,29.96,4,1,10,0.00
2013-5-10,84.4,72.5,61.8,67.5,62.9,58.4,90,73,51,30.06,29.97,5,2,12,0.00
2013-5-11,82.8,75.3,70.1,71.5,66.6,60.8,90,75,50,29.99,29.82,4,2,7,0.00
2013-5-12,82.8,73.9,62.7,66.8,59.7,48.0,90,64,35,29.94,29.79,5,2,9,0.00
2013-5-13,73.4,63.4,51.9,53.7,44.0,38.1,80,52,29,30.10,29.94,4,1,11,0.00
2013-5-14,69.7,60.7,48.0,52.9,44.6,38.0,93,59,36,30.23,30.10,5,2,9,0.00
2013-5-15,86.1,70.9,58.6,65.3,58.0,52.5,86,65,43,30.12,29.94,5,2,8,0.00
2013-5-16,76.3,68.2,67.2,67.8,59.2,58.5,75,73,71,29.98,29.94,2,1,4,0.00
2013-5-17,87.8,79.5,70.1,68.5,65.3,60.4,79,62,46,30.08,30.01,5,2,8,0.00
2013-5-18,81.8,73.3,64.6,70.7,66.7,62.2,95,81,55,30.13,30.06,5,2,10,0.00
2013-5-19,78.9,73.3,70.3,70.9,68.4,65.2,96,85,64,30.11,30.04,6,2,9,0.04
2013-5-20,73.4,71.7,70.4,70.8,69.1,66.8,95,91,86,30.10,30.01,4,1,7,1.12
2013-5-21,71.7,71.3,71.0,69.6,69.2,68.9,93,93,92,29.99,29.97,2,1,4,0.07
2013-5-22,81.1,74.2,65.5,72.3,69.5,64.3,99,86,72,30.01,29.90,6,2,8,0.00
2013-5-23,81.4,72.7,67.0,73.5,69.2,65.8,98,89,69,29.94,29.81,6,1,10,1.75
2013-5-24,80.9,71.2,58.7,67.8,59.8,44.4,98,71,36,30.14,29.78,6,2,13,0.00
2013-5-25,78.1,63.2,48.8,56.1,46.7,40.7,88,60,27,30.26,30.12,4,1,7,0.00
2013-5-26,76.4,66.3,56.6,59.7,54.7,47.5,91,69,39,30.23,30.13,4,1,7,0.00
2013-5-27,77.2,69.1,58.2,65.1,61.4,56.8,98,78,60,30.23,30.15,4,2,9,0.00
2013-5-28,80.7,72.7,62.7,69.2,65.4,61.2,98,79,61,30.24,30.16,6,2,9,0.00
2013-5-29,80.5,73.4,64.4,69.3,65.9,62.9,97,79,60,30.24,30.13,4,2,8,0.00
2013-5-30,83.0,75.0,63.4,72.1,68.2,61.9,98,80,64,30.24,30.15,4,1,6,0.00
2013-5-31,81.8,74.8,67.7,73.0,70.1,66.2,98,86,70,30.20,30.16,4,1,8,0.00
2013-6-2,76.3,76.2,76.1,72.8,72.7,72.6,89,89,89,29.94,29.93,3,3,6,0.00
2013-6-3,78.4,74.1,68.8,75.9,71.8,66.3,97,93,82,29.93,29.82,6,1,10,1.15
2013-6-4,82.5,75.2,68.8,73.9,71.1,67.9,99,88,66,30.02,29.88,4,1,9,0.00
2013-6-5,81.0,76.1,74.2,74.0,72.1,71.2,94,88,78,30.04,29.95,6,3,13,0.00
2013-6-6,79.2,75.1,71.7,74.8,72.6,70.2,97,92,83,29.97,29.74,4,2,9,1.92
2013-6-7,84.5,76.7,71.6,74.3,72.7,70.7,98,88,68,29.83,29.52,8,4,18,0.66
2013-6-8,88.6,79.9,74.9,76.5,73.6,71.0,94,82,58,30.06,29.82,4,2,8,0.00
2013-6-9,85.0,78.8,73.9,77.5,74.3,71.8,97,86,75,30.11,30.04,4,2,9,0.00
2013-6-10,85.5,78.9,69.9,77.3,74.1,67.8,94,86,70,30.09,29.92,7,2,9,0.13
2013-6-11,89.9,77.3,69.4,75.7,71.9,67.6,97,85,60,29.99,29.86,4,2,8,0.04
2013-6-12,88.7,80.1,72.7,79.8,75.1,71.2,96,85,74,29.94,29.86,1,0,2,0.00
2013-6-13,96.7,86.9,78.0,78.9,76.0,73.1,93,72,50,29.87,29.64,5,2,9,0.00
2013-6-14,86.4,78.6,71.1,75.1,63.8,58.5,89,62,42,29.97,29.66,4,2,12,0.00
2013-6-15,70.9,67.9,65.4,62.2,61.6,61.1,87,81,74,30.01,29.97,0,0,0,0.00
2013-6-16,76.9,74.9,72.8,66.4,65.7,65.0,77,73,70,30.06,30.03,2,1,5,0.00
2013-6-17,84.4,77.7,70.7,75.1,70.7,65.2,92,80,64,30.06,29.93,5,2,8,0.02
2013-6-18,90.0,83.0,74.1,77.4,73.1,68.0,86,73,61,29.89,29.78,5,2,8,0.15
2013-6-19,80.5,76.7,72.4,75.4,72.0,69.1,94,86,74,30.03,29.83,3,1,7,0.18
2013-6-20,83.4,74.8,67.4,70.5,67.3,61.9,95,79,57,30.14,30.02,5,1,9,0.17
2013-6-21,82.5,73.2,64.0,74.2,67.2,59.3,95,82,69,30.16,30.08,2,0,5,0.00
2013-6-22,86.5,74.9,69.9,74.8,71.4,68.7,97,90,65,30.12,30.05,3,1,5,0.02
2013-6-23,83.0,77.2,70.6,76.6,73.2,69.4,98,88,75,30.17,30.11,5,1,7,0.15
2013-6-24,84.3,79.6,76.7,77.4,74.8,73.1,93,86,73,30.19,30.10,4,2,8,0.56
2013-6-25,87.2,80.3,74.5,77.7,74.8,72.9,96,84,66,30.13,30.01,4,2,8,0.00
2013-6-26,88.6,79.3,73.5,76.6,73.3,71.0,94,83,63,30.04,29.91,4,1,8,0.00
2013-6-27,90.3,80.1,73.2,80.2,74.4,67.4,96,83,65,29.97,29.74,5,2,13,0.03
2013-6-28,92.0,83.0,77.2,80.3,76.4,73.2,90,81,61,29.79,29.60,5,2,8,0.00
2013-6-29,86.5,78.4,73.1,76.9,73.6,70.1,97,86,68,29.74,29.63,6,2,10,0.41
2013-6-30,82.5,77.3,72.1,77.5,74.5,70.6,96,91,81,29.83,29.70,5,2,8,1.37
2013-7-1,80.7,76.5,71.5,77.1,74.0,70.0,98,92,80,30.02,29.87,7,3,12,6.62
2013-7-2,78.8,76.3,74.4,76.3,74.2,72.7,97,93,90,30.07,30.00,4,2,7,0.19
2013-7-3,78.9,78.8,78.6,76.3,75.8,75.5,92,91,90,30.21,30.18,3,1,3,0.05
2013-7-4,85.0,81.0,78.2,76.3,75.1,73.5,91,83,73,30.22,30.15,5,3,10,0.00
2013-7-5,85.1,81.1,78.4,77.8,75.6,73.7,90,83,75,30.23,30.15,5,2,10,0.00
2013-7-6,85.2,79.4,72.5,75.8,73.4,70.8,97,82,70,30.21,30.11,5,2,8,0.00
2013-7-7,83.7,78.5,74.5,72.3,71.6,71.2,90,80,68,30.13,30.07,3,1,4,0.00
2013-7-8,86.3,78.5,71.0,74.8,72.3,69.8,96,82,61,30.16,30.08,4,1,4,0.00
2013-7-9,87.1,80.1,72.6,76.1,73.1,70.5,94,80,64,30.16,30.06,4,2,9,0.00
2013-7-10,86.6,80.4,74.2,76.1,73.8,72.0,94,81,65,30.10,29.94,6,2,9,0.00
2013-7-11,76.8,76.3,75.9,73.5,73.1,72.6,90,90,89,29.98,29.95,1,0,2,0.00
2013-7-12,77.9,75.3,72.9,74.2,72.7,70.9,97,92,86,29.94,29.85,3,0,4,1.07
2013-7-13,85.4,77.8,72.8,77.3,73.9,71.3,95,88,73,30.07,29.91,6,1,9,0.18
2013-7-14,85.3,80.9,73.9,77.6,74.9,71.4,93,82,75,30.20,30.07,7,4,11,0.06
2013-7-15,86.3,81.2,77.2,78.0,75.8,74.6,93,84,73,30.23,30.16,5,2,13,0.00
2013-7-16,89.8,81.3,73.9,76.5,74.0,71.3,97,80,59,30.24,30.15,4,1,7,0.00
2013-7-17,92.2,78.4,71.9,79.7,74.0,69.0,97,87,63,30.17,30.06,4,1,9,1.40
2013-7-18,72.8,72.7,72.4,72.2,71.9,71.6,98,97,97,30.10,30.06,1,0,2,0.00
2013-7-22,89.9,81.1,74.2,76.2,74.2,71.9,94,81,62,29.96,29.84,4,2,10,0.00
2013-7-23,89.1,80.7,74.8,75.7,73.4,71.8,91,79,62,29.88,29.73,3,2,8,0.00
2013-7-24,86.8,80.0,74.8,77.8,74.7,72.7,94,84,69,29.78,29.72,3,1,5,0.00
2013-7-25,88.5,79.7,71.3,76.1,72.9,69.5,96,81,61,29.96,29.74,3,1,4,0.00
2013-7-26,84.6,78.1,70.8,75.5,72.1,68.0,92,82,72,30.04,29.95,4,1,7,0.00
2013-7-27,84.2,77.0,71.0,74.5,72.1,69.2,96,85,70,30.01,29.89,4,1,10,0.00
2013-7-28,86.8,79.3,73.6,77.8,74.4,71.5,95,86,69,29.97,29.88,4,1,6,0.00
2013-7-29,73.4,73.2,73.1,72.5,72.3,72.2,97,97,97,30.11,30.09,0,0,0,2.74
2013-7-30,85.4,78.5,72.7,77.6,74.4,72.1,98,88,72,30.15,30.07,4,1,6,0.00
2013-7-31,85.1,78.3,74.4,77.6,74.9,73.2,97,90,76,30.10,29.98,3,1,5,0.13
2013-8-1,83.7,78.7,74.1,76.4,74.5,72.9,97,87,74,29.98,29.88,3,1,5,1.30
2013-8-2,86.5,78.7,73.8,78.8,75.4,72.6,97,90,70,30.01,29.90,4,1,6,1.04
2013-8-3,86.5,80.4,75.3,78.0,76.0,74.4,98,87,71,30.01,29.89,4,1,7,0.05
2013-8-4,91.8,81.2,73.2,76.4,73.7,70.2,96,79,58,29.97,29.84,4,1,6,0.00
2013-8-5,84.2,77.0,69.7,72.0,66.7,63.2,94,72,51,30.03,29.94,5,1,9,0.00
2013-8-6,83.4,78.0,70.4,70.5,67.9,63.1,90,72,60,30.02,29.94,3,1,5,0.00
2013-8-7,85.7,76.6,69.1,74.5,71.2,67.6,95,84,60,30.05,29.98,4,1,7,0.00
2013-8-8,86.8,78.3,71.5,78.0,74.1,70.2,97,88,72,30.04,29.97,4,1,5,1.02
2013-8-11,94.6,88.6,81.1,79.7,77.4,74.8,85,70,54,30.09,30.00,3,2,5,0.00
2013-8-12,95.6,84.8,77.5,79.7,76.7,74.7,91,78,54,30.04,29.91,3,2,7,0.00
2013-8-13,94.0,85.2,78.1,78.8,76.7,74.3,90,77,54,29.94,29.78,4,2,9,0.00
2013-8-14,83.1,77.1,66.4,77.5,73.4,64.1,95,89,74,29.98,29.79,5,1,13,0.02
2013-8-15,66.1,64.7,63.0,63.8,62.7,61.5,95,93,90,30.00,29.98,1,0,4,0.08
2013-8-16,71.3,70.5,69.8,69.5,68.9,68.3,96,94,94,30.06,30.05,1,0,2,0.61
2013-8-17,80.3,73.0,68.6,74.1,70.2,67.1,96,91,80,30.12,30.00,3,1,5,0.00
2013-8-18,87.0,77.4,70.1,76.8,73.0,68.9,97,87,67,30.16,30.07,3,1,6,0.00
2013-8-19,86.1,78.2,74.1,78.4,75.2,72.9,98,91,72,30.12,30.02,3,0,7,0.06
2013-8-20,84.5,77.7,73.8,78.4,75.5,72.9,98,93,80,30.13,30.03,2,0,4,0.13
2013-8-21,87.5,79.7,72.2,79.4,75.3,71.3,98,87,67,30.18,30.06,4,1,10,0.09
2013-8-22,88.4,78.7,72.7,77.5,74.5,71.5,97,88,64,30.11,29.99,4,1,7,0.02
2013-8-23,91.3,80.0,72.8,78.1,74.4,71.6,97,84,56,30.00,29.90,4,1,8,0.00
2013-8-24,83.6,76.5,71.4,74.5,69.3,66.4,96,79,58,30.20,29.98,2,0,6,0.00
2013-8-25,78.9,69.9,64.0,66.7,64.1,61.6,93,83,64,30.28,30.19,2,0,4,0.00
2013-8-27,73.7,73.5,73.3,65.3,65.1,64.9,76,75,74,30.00,29.99,0,0,1,0.00
2013-8-28,91.0,79.4,70.1,75.9,70.5,65.2,92,75,52,30.00,29.89,3,1,6,0.00
2013-8-29,93.5,81.5,73.5,77.8,73.2,69.7,89,77,56,29.91,29.81,4,1,8,0.00
2013-8-30,84.3,78.1,71.2,74.4,72.7,68.9,94,84,69,29.99,29.91,5,1,8,0.00
2013-8-31,87.0,78.8,71.4,76.5,73.9,70.2,98,86,67,29.94,29.85,4,1,9,0.00
2013-9-1,89.8,81.5,75.5,79.9,75.9,73.6,97,84,59,29.93,29.80,5,2,8,0.00
2013-9-2,93.1,83.2,77.7,79.4,75.9,72.7,93,80,55,29.89,29.77,4,1,7,0.00
2013-9-3,92.1,78.8,71.1,76.5,72.7,68.7,95,82,58,29.91,29.77,8,1,16,0.68
2013-9-4,88.6,79.7,71.4,78.1,74.7,70.2,97,85,66,30.03,29.90,4,1,8,0.00
2013-9-5,90.6,81.3,74.4,77.6,75.2,71.6,96,83,55,30.04,29.96,3,0,4,0.00
2013-9-6,89.0,77.5,68.4,73.3,69.2,65.1,94,77,47,30.07,29.98,4,1,6,0.00
2013-9-7,84.5,75.4,67.1,70.8,67.6,64.7,93,78,57,30.06,29.94,3,1,6,0.00
2013-9-8,87.9,75.9,65.0,73.5,69.0,63.5,96,80,55,29.96,29.85,4,1,7,0.00
2013-9-9,86.2,75.2,69.0,73.4,69.8,67.2,95,84,62,30.06,29.94,4,1,4,0.00
2013-9-11,87.0,80.6,71.8,72.6,70.7,68.6,92,73,55,30.15,30.05,5,2,6,0.00
2013-9-12,88.3,77.4,68.5,73.4,70.1,67.2,97,80,57,30.06,29.83,3,1,5,0.00
2013-9-13,90.5,78.8,72.4,76.1,71.5,67.2,92,79,53,29.83,29.70,3,1,5,0.00
2013-9-14,84.2,75.0,68.1,69.3,65.2,61.4,86,72,57,30.04,29.77,4,1,7,0.00
2013-9-15,82.4,75.0,67.2,73.4,69.3,63.9,92,83,72,30.14,30.04,5,2,9,0.00
2013-9-16,87.8,79.2,73.0,75.8,72.7,70.5,95,81,64,30.09,29.98,3,1,5,0.00
2013-9-17,81.1,73.4,67.1,71.3,62.8,59.1,89,71,50,30.20,30.05,3,1,6,0.00
2013-9-18,78.8,67.3,57.7,61.5,57.3,52.8,85,71,53,30.20,30.10,3,1,4,0.00
2013-9-22,78.1,72.2,66.8,71.8,67.6,63.7,94,86,75,29.83,29.63,5,2,8,0.28
2013-9-23,79.7,68.5,59.0,63.6,59.7,57.4,95,76,49,30.02,29.83,3,0,6,0.00
2013-9-24,77.1,65.0,56.7,59.0,55.7,53.3,91,74,44,30.05,29.94,4,1,9,0.00
2013-9-26,79.1,68.8,62.5,65.6,61.3,56.8,96,79,48,29.93,29.79,3,0,4,0.31
2013-9-27,79.6,68.1,59.0,63.5,59.1,55.7,93,74,51,30.09,29.92,2,1,6,0.00
2013-9-28,79.3,67.7,60.7,63.1,59.3,55.4,87,75,57,30.12,30.05,2,1,5,0.00
2013-9-29,78.0,66.2,57.8,59.5,57.1,55.1,94,75,48,30.08,29.96,3,1,9,0.00
2013-9-30,76.6,64.9,54.8,62.8,58.2,53.1,95,81,54,30.03,29.94,2,0,4,0.00
2013-10-1,81.6,66.8,54.2,61.7,58.1,52.8,97,77,46,30.09,30.00,3,1,4,0.00
2013-10-2,84.5,69.5,57.2,65.6,61.2,55.8,97,77,48,30.10,30.02,4,1,5,0.00
2013-10-3,81.4,68.3,59.8,69.1,63.2,58.4,97,85,57,30.12,30.06,4,1,5,0.00
2013-10-4,83.3,77.5,68.7,72.2,69.5,66.9,94,77,60,30.11,30.03,4,1,8,0.00
2013-10-5,82.8,67.6,64.2,70.7,65.6,63.0,99,94,66,30.09,30.04,1,0,4,0.00
2013-10-6,80.9,78.2,75.5,74.5,72.8,70.9,89,84,79,29.97,29.91,4,3,9,0.01
2013-10-8,58.0,57.2,56.6,56.9,56.2,55.5,97,96,96,30.05,30.01,2,1,3,0.35
2013-10-9,73.8,62.8,56.6,63.5,58.1,55.2,96,85,70,30.03,29.97,4,2,9,0.01
2013-10-10,63.1,61.0,60.1,60.1,56.3,55.6,90,85,83,29.98,29.92,4,3,7,0.00
2013-10-11,63.1,62.8,62.5,60.4,60.2,59.9,92,91,90,29.92,29.87,1,0,1,0.00
2013-10-13,68.4,67.9,67.3,65.3,65.0,64.6,91,90,89,30.07,30.05,1,1,4,0.00
2013-10-14,77.5,70.2,66.8,67.4,65.3,62.4,91,85,70,30.09,30.01,2,1,8,0.00
2013-10-15,71.8,66.0,60.9,63.9,61.2,57.7,91,84,74,30.08,29.97,3,1,5,0.00
2013-10-16,73.2,67.3,61.4,65.2,63.4,59.7,95,88,74,30.00,29.92,2,0,3,0.00
2013-10-17,79.4,68.3,58.2,67.6,63.0,57.1,98,84,64,29.95,29.85,4,1,8,0.00
2013-10-18,76.3,69.6,64.9,71.7,67.2,63.5,98,92,84,29.95,29.85,3,0,5,0.00
2013-10-19,78.6,70.4,65.4,72.7,68.1,63.8,98,93,77,29.92,29.82,3,0,6,0.81
2013-10-20,69.5,63.4,55.3,63.8,57.0,52.5,95,80,61,30.05,29.86,3,1,6,0.00
2013-10-21,69.8,60.7,53.8,60.2,55.3,51.2,93,83,66,30.09,29.97,1,0,6,0.00
2013-10-22,64.1,59.6,58.5,58.8,57.3,56.3,95,92,81,29.98,29.91,0,0,1,0.00
2013-10-25,61.8,53.7,40.6,42.0,38.6,34.8,91,59,39,30.32,30.21,4,1,6,0.00
2013-10-26,65.1,48.5,35.3,47.2,39.5,32.7,93,74,44,30.31,30.10,3,1,6,0.00
2013-10-27,69.3,54.4,41.5,53.3,46.4,39.3,95,77,48,30.11,30.03,3,1,5,0.00
2013-10-28,74.0,59.9,50.4,59.7,54.6,48.7,97,84,57,30.23,30.09,2,0,5,0.00
2013-10-29,75.3,60.9,49.9,61.5,56.0,48.8,99,85,56,30.29,30.19,3,0,5,0.00
2013-10-30,77.1,62.3,51.8,63.1,57.2,50.7,100,85,52,30.28,30.15,4,1,6,0.00
2013-10-31,77.5,61.7,53.9,66.7,57.9,52.9,100,89,65,30.18,30.06,4,1,6,0.00
2013-11-1,79.6,75.3,71.1,69.9,68.9,67.5,96,81,67,29.78,29.71,4,2,8,0.08
2013-11-2,70.9,64.4,52.7,69.9,60.6,50.4,98,88,62,29.90,29.69,3,1,7,1.05
2013-11-3,66.2,54.3,46.1,50.4,44.8,41.8,94,73,42,30.28,29.90,4,1,6,0.00
2013-11-4,65.4,52.4,42.3,45.5,41.2,37.4,85,67,45,30.43,30.27,3,1,6,0.00
2013-11-5,66.5,53.3,41.6,59.7,49.4,37.4,95,87,76,30.41,30.30,3,0,4,0.00
2013-11-6,76.2,64.7,55.8,64.9,59.4,51.7,97,83,67,30.30,30.06,5,1,8,0.07
2013-11-7,75.1,66.4,57.4,66.1,63.2,44.3,99,90,61,30.06,29.88,3,1,6,0.54
2013-11-8,60.7,50.7,38.9,44.3,37.0,32.7,93,62,36,30.27,30.00,3,1,7,0.00
2013-11-9,65.0,50.1,35.9,51.0,43.1,33.8,94,79,50,30.33,30.17,3,0,4,0.00
2013-11-10,69.3,57.9,49.0,52.0,49.0,43.5,97,75,43,30.21,30.08,3,1,5,0.00
2013-11-11,63.8,52.2,44.0,46.5,41.0,35.2,95,68,40,30.28,30.13,3,1,6,0.00
2013-11-12,70.0,53.4,37.5,49.9,41.8,28.7,97,68,40,30.33,29.97,4,1,10,0.00
2013-11-13,49.0,38.5,28.5,31.6,26.7,21.9,90,66,36,30.48,30.31,5,1,8,0.00
2013-11-14,61.2,41.4,26.8,40.8,31.0,24.4,93,72,31,30.49,30.31,3,0,5,0.01
2013-11-15,62.2,52.3,37.7,60.2,49.3,36.1,95,90,74,30.31,30.14,4,0,6,0.00
2013-11-16,75.0,63.9,56.2,65.1,60.0,55.2,100,88,61,30.18,30.11,3,1,7,0.00
2013-11-17,73.9,63.0,52.6,69.0,61.6,51.8,99,95,83,30.16,29.95,3,1,5,0.03
2013-11-18,82.5,75.8,62.0,70.9,66.5,47.0,91,73,58,29.87,29.75,4,2,6,0.00
2013-11-19,62.6,54.4,44.6,46.0,36.3,33.0,77,52,34,30.19,29.87,2,1,6,0.00
2013-11-20,55.9,47.4,42.2,44.9,38.9,34.6,80,72,60,30.33,30.19,3,1,5,0.00
2013-11-21,70.9,58.4,48.4,61.0,52.8,44.4,96,82,67,30.37,30.29,3,1,7,0.00
2013-11-22,74.0,63.6,58.6,64.2,61.0,57.6,98,92,69,30.31,30.09,3,1,7,0.02
2013-11-23,65.5,61.2,54.4,64.8,59.3,42.7,99,94,65,30.10,29.98,3,1,6,0.10
2013-11-24,53.9,41.0,28.5,42.0,20.9,12.1,64,46,28,30.50,30.08,5,1,11,0.00
2013-11-25,49.2,36.7,26.6,33.6,19.8,10.2,80,52,33,30.55,30.26,4,1,5,0.00
2013-11-26,70.6,58.1,39.4,69.9,56.5,33.7,100,95,80,30.26,29.59,8,3,15,1.11
2013-11-27,68.2,53.5,34.9,67.6,51.2,28.0,98,92,75,30.17,29.43,6,3,11,0.06
2013-11-28,47.7,35.7,29.4,31.1,25.9,20.1,94,70,40,30.47,30.18,3,1,7,0.00
2013-11-29,57.9,41.1,28.9,35.0,31.4,27.6,96,72,38,30.52,30.44,2,0,4,0.00
2013-11-30,57.1,45.1,32.8,43.5,36.5,28.3,84,72,59,30.52,30.28,3,1,7,0.00
2013-12-1,59.6,51.1,45.1,52.3,46.5,40.9,96,85,74,30.28,29.98,2,0,4,0.00
2013-12-2,62.7,51.9,43.6,51.3,48.0,42.1,97,88,60,29.98,29.78,3,0,6,0.00
2013-12-3,62.8,51.9,40.6,55.6,48.3,39.6,99,88,63,29.98,29.85,3,0,5,0.03
2013-12-4,73.3,61.4,54.8,64.9,59.2,53.7,100,93,74,30.08,29.94,3,0,6,0.11
2013-12-5,76.3,65.0,53.0,67.7,61.6,52.4,100,90,71,30.14,30.04,4,1,7,0.02
2013-12-6,79.8,71.4,65.3,69.2,66.8,64.0,98,86,62,30.13,30.02,7,3,13,0.00
2013-12-7,73.6,59.3,44.4,68.3,57.0,42.8,98,92,83,30.34,30.04,4,1,6,0.06
2013-12-8,44.4,42.6,41.2,42.8,41.5,40.2,100,96,92,30.34,30.23,2,0,5,0.02
2013-12-9,41.8,41.5,41.2,41.3,40.8,40.4,98,97,97,30.23,30.19,1,0,2,0.00
2013-12-10,50.3,45.7,42.8,45.3,43.3,41.5,96,91,83,30.29,30.18,1,0,2,0.05
2013-12-11,42.7,39.2,35.9,41.6,36.6,33.3,96,90,86,30.32,30.29,1,0,1,0.00
2013-12-12,52.6,40.6,29.6,37.1,29.8,21.1,97,70,30,30.37,30.23,5,1,8,0.00
2013-12-13,52.7,39.8,26.6,39.0,30.2,21.1,96,73,30,30.40,30.25,4,1,7,0.00
2013-12-14,69.5,58.6,43.2,67.5,54.7,38.7,99,87,73,30.25,29.74,8,2,16,0.29
2013-12-15,66.5,55.2,42.0,64.7,51.3,40.7,97,87,70,30.08,29.71,6,2,9,0.03
2013-12-16,59.9,44.8,32.0,43.8,38.5,31.0,98,81,42,30.19,30.08,3,1,7,0.01
2013-12-17,66.6,51.5,39.6,43.5,38.7,34.9,90,65,35,30.17,30.00,5,1,9,0.00
2013-12-20,64.5,63.7,62.6,56.8,56.7,56.3,80,78,76,30.16,30.16,0,0,1,0.00
2013-12-21,76.0,64.4,51.5,67.3,61.2,50.4,100,90,73,30.15,30.06,5,2,7,0.00
2013-12-22,81.3,71.6,63.2,70.4,67.1,62.0,100,86,67,30.10,30.03,6,3,11,0.00
2013-12-23,76.9,68.8,59.9,70.8,66.8,59.3,99,94,80,30.09,29.99,6,3,14,0.25
2013-12-24,59.9,49.1,38.4,59.6,44.1,31.0,99,84,59,30.37,30.02,5,1,9,0.09
2013-12-25,48.1,38.0,28.5,31.4,27.0,21.0,76,65,48,30.48,30.32,3,1,7,0.00
2013-12-26,47.0,41.1,34.8,41.8,36.8,28.7,94,85,73,30.32,30.21,3,1,7,0.00
2013-12-27,55.9,44.6,35.7,38.6,35.0,32.2,93,72,42,30.39,30.29,2,0,5,0.00
2013-12-28,62.5,48.0,30.3,53.8,39.2,28.8,96,75,36,30.37,30.05,3,0,5,0.02
2013-12-29,71.8,63.5,49.7,67.5,60.4,48.0,100,90,69,30.04,29.72,8,3,16,0.58
2013-12-30,56.9,49.2,43.4,49.9,47.2,42.6,99,93,74,30.13,29.92,3,0,5,0.00
2013-12-31,55.5,48.5,40.0,47.4,42.9,38.0,96,82,56,30.35,30.09,4,1,8,0.00
2014-1-1,50.7,43.4,37.2,44.4,39.7,35.7,96,87,60,30.37,30.12,2,0,2,0.12
2014-1-2,53.1,48.2,45.5,52.6,47.3,44.4,99,97,86,30.12,29.63,6,1,10,0.75